sensor_id;sensor_type;location;lat;lon;timestamp;pressure;altitude;pressure_sealevel;temperature;humidity
27958;BME280;15295;42.658;23.374;2024-03-02T00:00:37;94048.09;;;12.76;56.83
27958;BME280;15295;42.658;23.374;2024-03-02T00:03:03;94052.41;;;12.93;56.36
27958;BME280;15295;42.658;23.374;2024-03-02T00:05:29;94058.06;;;13.02;56.39
27958;BME280;15295;42.658;23.374;2024-03-02T00:07:57;94047.00;;;12.90;56.82
27958;BME280;15295;42.658;23.374;2024-03-02T00:10:25;94044.00;;;12.84;56.56
27958;BME280;15295;42.658;23.374;2024-03-02T00:12:55;94051.06;;;13.01;56.22
27958;BME280;15295;42.658;23.374;2024-03-02T00:17:55;94053.78;;;13.21;55.93
27958;BME280;15295;42.658;23.374;2024-03-02T00:20:22;94046.16;;;12.93;56.48
27958;BME280;15295;42.658;23.374;2024-03-02T00:22:51;94035.69;;;12.88;56.49
27958;BME280;15295;42.658;23.374;2024-03-02T00:25:17;94048.13;;;12.92;56.50
27958;BME280;15295;42.658;23.374;2024-03-02T00:27:47;94039.78;;;12.80;56.73
27958;BME280;15295;42.658;23.374;2024-03-02T00:33:00;94047.66;;;12.78;56.96
27958;BME280;15295;42.658;23.374;2024-03-02T00:35:26;94037.03;;;12.80;57.02
27958;BME280;15295;42.658;23.374;2024-03-02T00:37:51;94023.66;;;12.82;56.78
27958;BME280;15295;42.658;23.374;2024-03-02T00:40:17;94017.84;;;12.80;56.48
27958;BME280;15295;42.658;23.374;2024-03-02T00:42:42;94021.81;;;12.95;56.29
27958;BME280;15295;42.658;23.374;2024-03-02T00:45:08;94030.31;;;13.00;56.11
27958;BME280;15295;42.658;23.374;2024-03-02T00:47:38;94027.31;;;12.95;56.18
27958;BME280;15295;42.658;23.374;2024-03-02T00:50:05;94016.69;;;12.97;55.70
27958;BME280;15295;42.658;23.374;2024-03-02T00:52:31;94016.91;;;12.86;55.60
27958;BME280;15295;42.658;23.374;2024-03-02T00:54:58;94003.34;;;12.79;55.75
27958;BME280;15295;42.658;23.374;2024-03-02T00:57:24;94009.03;;;13.08;55.33
27958;BME280;15295;42.658;23.374;2024-03-02T00:59:51;94007.06;;;13.08;55.18
27958;BME280;15295;42.658;23.374;2024-03-02T01:02:17;94014.34;;;13.15;55.18
27958;BME280;15295;42.658;23.374;2024-03-02T01:04:45;93999.25;;;13.23;55.07
27958;BME280;15295;42.658;23.374;2024-03-02T01:07:11;94012.97;;;13.39;54.58
27958;BME280;15295;42.658;23.374;2024-03-02T01:09:36;94024.91;;;13.49;54.49
27958;BME280;15295;42.658;23.374;2024-03-02T01:12:02;94017.47;;;13.49;54.08
27958;BME280;15295;42.658;23.374;2024-03-02T01:14:27;94022.59;;;13.63;53.94
27958;BME280;15295;42.658;23.374;2024-03-02T01:16:53;94020.09;;;13.69;54.08
27958;BME280;15295;42.658;23.374;2024-03-02T01:19:19;94013.31;;;13.73;54.18
27958;BME280;15295;42.658;23.374;2024-03-02T01:21:44;94011.69;;;13.76;53.94
27958;BME280;15295;42.658;23.374;2024-03-02T01:24:10;94011.84;;;13.69;53.81
27958;BME280;15295;42.658;23.374;2024-03-02T01:26:35;94008.69;;;13.70;53.81
27958;BME280;15295;42.658;23.374;2024-03-02T01:29:01;94004.56;;;13.78;53.89
27958;BME280;15295;42.658;23.374;2024-03-02T01:31:26;93987.75;;;13.76;54.00
27958;BME280;15295;42.658;23.374;2024-03-02T01:33:52;94004.41;;;13.69;53.80
27958;BME280;15295;42.658;23.374;2024-03-02T01:36:17;93997.97;;;13.76;53.68
27958;BME280;15295;42.658;23.374;2024-03-02T01:38:43;93989.13;;;13.68;53.48
27958;BME280;15295;42.658;23.374;2024-03-02T01:41:09;94003.00;;;13.77;53.41
27958;BME280;15295;42.658;23.374;2024-03-02T01:43:34;93987.06;;;13.72;53.51
27958;BME280;15295;42.658;23.374;2024-03-02T01:46:00;93987.41;;;13.74;53.61
27958;BME280;15295;42.658;23.374;2024-03-02T01:48:26;93995.09;;;13.79;53.63
27958;BME280;15295;42.658;23.374;2024-03-02T01:50:51;93981.81;;;13.78;53.31
27958;BME280;15295;42.658;23.374;2024-03-02T01:53:17;93987.22;;;13.81;53.54
27958;BME280;15295;42.658;23.374;2024-03-02T01:55:42;93978.84;;;13.72;53.74
27958;BME280;15295;42.658;23.374;2024-03-02T01:58:08;93991.34;;;13.73;54.11
27958;BME280;15295;42.658;23.374;2024-03-02T02:00:34;93985.78;;;13.77;54.27
27958;BME280;15295;42.658;23.374;2024-03-02T02:02:59;93985.69;;;13.80;53.88
27958;BME280;15295;42.658;23.374;2024-03-02T02:05:25;93987.75;;;13.76;54.20
27958;BME280;15295;42.658;23.374;2024-03-02T02:07:50;93991.00;;;13.87;54.08
27958;BME280;15295;42.658;23.374;2024-03-02T02:10:16;93988.53;;;13.77;54.50
27958;BME280;15295;42.658;23.374;2024-03-02T02:12:41;93988.09;;;13.78;54.64
27958;BME280;15295;42.658;23.374;2024-03-02T02:15:26;93993.31;;;13.89;54.29
27958;BME280;15295;42.658;23.374;2024-03-02T02:17:53;93981.66;;;13.85;54.46
27958;BME280;15295;42.658;23.374;2024-03-02T02:20:19;93977.78;;;13.82;54.68
27958;BME280;15295;42.658;23.374;2024-03-02T02:23:13;93972.22;;;13.70;54.53
27958;BME280;15295;42.658;23.374;2024-03-02T02:25:39;93980.69;;;13.75;54.84
27958;BME280;15295;42.658;23.374;2024-03-02T02:28:04;93979.59;;;13.73;54.90
27958;BME280;15295;42.658;23.374;2024-03-02T02:30:31;93975.75;;;13.70;54.94
27958;BME280;15295;42.658;23.374;2024-03-02T02:32:58;93977.53;;;13.77;55.05
27958;BME280;15295;42.658;23.374;2024-03-02T02:35:23;93981.47;;;13.76;55.07
27958;BME280;15295;42.658;23.374;2024-03-02T02:37:50;93981.91;;;13.74;54.63
27958;BME280;15295;42.658;23.374;2024-03-02T02:40:17;93979.34;;;13.67;54.66
27958;BME280;15295;42.658;23.374;2024-03-02T02:42:44;93982.88;;;13.68;54.71
27958;BME280;15295;42.658;23.374;2024-03-02T02:45:09;93980.97;;;13.65;55.00
27958;BME280;15295;42.658;23.374;2024-03-02T02:47:36;93971.16;;;13.51;54.82
27958;BME280;15295;42.658;23.374;2024-03-02T02:50:07;93983.91;;;13.58;55.03
27958;BME280;15295;42.658;23.374;2024-03-02T02:52:34;93985.69;;;13.64;55.09
27958;BME280;15295;42.658;23.374;2024-03-02T02:55:03;93988.88;;;13.63;54.90
27958;BME280;15295;42.658;23.374;2024-03-02T02:57:28;93979.84;;;13.62;54.74
27958;BME280;15295;42.658;23.374;2024-03-02T02:59:56;93979.34;;;13.67;54.91
27958;BME280;15295;42.658;23.374;2024-03-02T03:02:22;93980.28;;;13.61;54.74
27958;BME280;15295;42.658;23.374;2024-03-02T03:04:48;93984.66;;;13.58;55.11
27958;BME280;15295;42.658;23.374;2024-03-02T03:07:13;93969.41;;;13.57;55.07
27958;BME280;15295;42.658;23.374;2024-03-02T03:09:39;93977.22;;;13.59;55.02
27958;BME280;15295;42.658;23.374;2024-03-02T03:12:04;93981.41;;;13.63;55.15
27958;BME280;15295;42.658;23.374;2024-03-02T03:14:30;93974.91;;;13.57;55.03
27958;BME280;15295;42.658;23.374;2024-03-02T03:16:56;93981.06;;;13.61;55.25
27958;BME280;15295;42.658;23.374;2024-03-02T03:19:21;93975.59;;;13.61;55.04
27958;BME280;15295;42.658;23.374;2024-03-02T03:21:47;93983.22;;;13.70;55.02
27958;BME280;15295;42.658;23.374;2024-03-02T03:24:12;93990.22;;;13.71;54.87
27958;BME280;15295;42.658;23.374;2024-03-02T03:26:38;93977.03;;;13.66;55.15
27958;BME280;15295;42.658;23.374;2024-03-02T03:29:03;93975.06;;;13.66;54.98
27958;BME280;15295;42.658;23.374;2024-03-02T03:31:29;93979.34;;;13.67;54.93
27958;BME280;15295;42.658;23.374;2024-03-02T03:33:55;93977.38;;;13.68;55.20
27958;BME280;15295;42.658;23.374;2024-03-02T03:36:20;93984.75;;;13.71;55.21
27958;BME280;15295;42.658;23.374;2024-03-02T03:38:46;93979.69;;;13.69;55.47
27958;BME280;15295;42.658;23.374;2024-03-02T03:41:11;93993.31;;;13.73;55.52
27958;BME280;15295;42.658;23.374;2024-03-02T03:43:36;93989.81;;;13.72;55.35
27958;BME280;15295;42.658;23.374;2024-03-02T03:46:02;93994.78;;;13.77;55.18
27958;BME280;15295;42.658;23.374;2024-03-02T03:48:28;93985.50;;;13.71;55.38
27958;BME280;15295;42.658;23.374;2024-03-02T03:50:56;93974.72;;;13.64;55.40
27958;BME280;15295;42.658;23.374;2024-03-02T03:53:22;93983.09;;;13.73;55.39
27958;BME280;15295;42.658;23.374;2024-03-02T03:55:48;93981.47;;;13.76;55.29
27958;BME280;15295;42.658;23.374;2024-03-02T03:58:16;93967.50;;;13.70;55.16
27958;BME280;15295;42.658;23.374;2024-03-02T04:00:44;93974.25;;;13.82;55.02
27958;BME280;15295;42.658;23.374;2024-03-02T04:03:09;93983.63;;;13.84;54.98
27958;BME280;15295;42.658;23.374;2024-03-02T04:05:35;93981.38;;;13.79;54.87
27958;BME280;15295;42.658;23.374;2024-03-02T04:08:00;93982.09;;;13.83;55.06
27958;BME280;15295;42.658;23.374;2024-03-02T04:10:26;93982.09;;;13.83;54.98
27958;BME280;15295;42.658;23.374;2024-03-02T04:12:53;93968.25;;;13.71;55.13
27958;BME280;15295;42.658;23.374;2024-03-02T04:15:18;93986.69;;;13.86;54.46
27958;BME280;15295;42.658;23.374;2024-03-02T04:17:44;93966.03;;;13.82;54.57
27958;BME280;15295;42.658;23.374;2024-03-02T04:20:10;93965.00;;;13.76;54.51
27958;BME280;15295;42.658;23.374;2024-03-02T04:22:37;93986.69;;;13.86;54.61
27958;BME280;15295;42.658;23.374;2024-03-02T04:25:03;93974.94;;;13.86;54.37
27958;BME280;15295;42.658;23.374;2024-03-02T04:27:30;93981.03;;;13.93;53.94
27958;BME280;15295;42.658;23.374;2024-03-02T04:29:57;93978.28;;;13.93;54.10
27958;BME280;15295;42.658;23.374;2024-03-02T04:32:22;93973.06;;;13.83;53.95
27958;BME280;15295;42.658;23.374;2024-03-02T04:34:47;93984.63;;;13.90;54.18
27958;BME280;15295;42.658;23.374;2024-03-02T04:37:13;93980.00;;;13.87;54.05
27958;BME280;15295;42.658;23.374;2024-03-02T04:39:39;93984.22;;;13.92;54.04
27958;BME280;15295;42.658;23.374;2024-03-02T04:42:05;93989.78;;;13.88;54.04
27958;BME280;15295;42.658;23.374;2024-03-02T04:44:30;93990.03;;;13.94;53.97
27958;BME280;15295;42.658;23.374;2024-03-02T04:46:56;93993.75;;;13.87;54.16
27958;BME280;15295;42.658;23.374;2024-03-02T04:49:21;93992.88;;;13.90;54.21
27958;BME280;15295;42.658;23.374;2024-03-02T04:51:47;93992.78;;;13.94;54.20
27958;BME280;15295;42.658;23.374;2024-03-02T04:54:12;94002.13;;;13.97;54.25
27958;BME280;15295;42.658;23.374;2024-03-02T04:56:39;93996.22;;;13.98;54.43
27958;BME280;15295;42.658;23.374;2024-03-02T04:59:17;94003.91;;;14.03;54.48
27958;BME280;15295;42.658;23.374;2024-03-02T05:01:44;94004.34;;;14.02;54.77
27958;BME280;15295;42.658;23.374;2024-03-02T05:04:09;93995.78;;;14.00;54.66
27958;BME280;15295;42.658;23.374;2024-03-02T05:06:39;93999.63;;;14.02;54.73
27958;BME280;15295;42.658;23.374;2024-03-02T05:09:08;93994.22;;;13.99;54.88
27958;BME280;15295;42.658;23.374;2024-03-02T05:11:33;94007.53;;;14.00;55.06
27958;BME280;15295;42.658;23.374;2024-03-02T05:14:05;94003.69;;;13.81;55.31
27958;BME280;15295;42.658;23.374;2024-03-02T05:16:35;94006.44;;;13.81;55.49
27958;BME280;15295;42.658;23.374;2024-03-02T05:19:02;94010.75;;;13.82;55.52
27958;BME280;15295;42.658;23.374;2024-03-02T05:21:27;94003.28;;;13.83;55.61
27958;BME280;15295;42.658;23.374;2024-03-02T05:23:53;94019.03;;;13.95;55.44
27958;BME280;15295;42.658;23.374;2024-03-02T05:26:18;94017.06;;;13.96;55.29
27958;BME280;15295;42.658;23.374;2024-03-02T05:28:44;94021.00;;;13.94;55.62
27958;BME280;15295;42.658;23.374;2024-03-02T05:31:15;94014.06;;;13.90;55.66
27958;BME280;15295;42.658;23.374;2024-03-02T05:33:40;94021.69;;;13.99;55.62
27958;BME280;15295;42.658;23.374;2024-03-02T05:36:06;94026.31;;;14.02;55.72
27958;BME280;15295;42.658;23.374;2024-03-02T05:38:34;94030.88;;;14.08;56.11
27958;BME280;15295;42.658;23.374;2024-03-02T05:41:00;94027.78;;;14.06;56.25
27958;BME280;15295;42.658;23.374;2024-03-02T05:43:25;94039.34;;;14.14;56.37
27958;BME280;15295;42.658;23.374;2024-03-02T05:45:51;94030.19;;;14.04;56.12
27958;BME280;15295;42.658;23.374;2024-03-02T05:48:16;94042.63;;;14.09;56.13
27958;BME280;15295;42.658;23.374;2024-03-02T05:50:42;94041.53;;;14.06;56.16
27958;BME280;15295;42.658;23.374;2024-03-02T05:53:07;94048.13;;;14.09;56.01
27958;BME280;15295;42.658;23.374;2024-03-02T05:55:33;94043.66;;;13.99;56.23
27958;BME280;15295;42.658;23.374;2024-03-02T05:57:58;94045.56;;;14.02;56.63
27958;BME280;15295;42.658;23.374;2024-03-02T06:00:24;94050.19;;;14.05;56.26
27958;BME280;15295;42.658;23.374;2024-03-02T06:02:49;94049.53;;;14.01;56.42
27958;BME280;15295;42.658;23.374;2024-03-02T06:05:15;94048.97;;;14.06;56.42
27958;BME280;15295;42.658;23.374;2024-03-02T06:07:42;94049.53;;;14.01;56.66
27958;BME280;15295;42.658;23.374;2024-03-02T06:10:08;94040.69;;;13.93;56.74
27958;BME280;15295;42.658;23.374;2024-03-02T06:12:34;94034.00;;;13.78;56.99
27958;BME280;15295;42.658;23.374;2024-03-02T06:15:00;94043.69;;;13.82;57.04
27958;BME280;15295;42.658;23.374;2024-03-02T06:17:25;94039.31;;;13.85;57.01
27958;BME280;15295;42.658;23.374;2024-03-02T06:19:51;94046.00;;;13.84;57.25
27958;BME280;15295;42.658;23.374;2024-03-02T06:22:16;94047.38;;;13.76;57.51
27958;BME280;15295;42.658;23.374;2024-03-02T06:24:42;94052.97;;;13.72;57.45
27958;BME280;15295;42.658;23.374;2024-03-02T06:27:07;94049.22;;;13.66;57.18
27958;BME280;15295;42.658;23.374;2024-03-02T06:29:33;94050.06;;;13.63;57.30
27958;BME280;15295;42.658;23.374;2024-03-02T06:31:59;94054.16;;;13.71;57.67
27958;BME280;15295;42.658;23.374;2024-03-02T06:34:25;94052.09;;;13.75;58.00
27958;BME280;15295;42.658;23.374;2024-03-02T06:36:50;94058.56;;;14.14;59.31
27958;BME280;15295;42.658;23.374;2024-03-02T06:39:16;94062.16;;;14.27;58.49
27958;BME280;15295;42.658;23.374;2024-03-02T06:41:41;94053.41;;;14.16;57.68
27958;BME280;15295;42.658;23.374;2024-03-02T06:44:12;94067.25;;;14.12;57.35
27958;BME280;15295;42.658;23.374;2024-03-02T06:46:38;94063.06;;;14.08;57.13
27958;BME280;15295;42.658;23.374;2024-03-02T06:49:04;94065.41;;;14.09;56.95
27958;BME280;15295;42.658;23.374;2024-03-02T06:51:30;94063.16;;;14.04;56.93
27958;BME280;15295;42.658;23.374;2024-03-02T06:53:55;94060.06;;;14.02;56.70
27958;BME280;15295;42.658;23.374;2024-03-02T06:56:21;94061.25;;;14.01;57.02
27958;BME280;15295;42.658;23.374;2024-03-02T06:58:46;94065.63;;;13.99;57.17
27958;BME280;15295;42.658;23.374;2024-03-02T07:01:12;94070.72;;;14.00;56.95
27958;BME280;15295;42.658;23.374;2024-03-02T07:03:39;94070.72;;;14.00;56.79
27958;BME280;15295;42.658;23.374;2024-03-02T07:06:05;94072.34;;;13.98;56.81
27958;BME280;15295;42.658;23.374;2024-03-02T07:08:31;94063.00;;;13.95;56.99
27958;BME280;15295;42.658;23.374;2024-03-02T07:10:56;94077.94;;;13.94;57.09
27958;BME280;15295;42.658;23.374;2024-03-02T07:13:22;94077.16;;;13.93;57.12
27958;BME280;15295;42.658;23.374;2024-03-02T07:15:50;94075.19;;;13.94;56.91
27958;BME280;15295;42.658;23.374;2024-03-02T07:18:27;94079.91;;;13.93;56.98
27958;BME280;15295;42.658;23.374;2024-03-02T07:20:53;94083.84;;;13.92;57.13
27958;BME280;15295;42.658;23.374;2024-03-02T07:23:18;94078.53;;;13.85;57.19
27958;BME280;15295;42.658;23.374;2024-03-02T07:25:47;94081.91;;;13.77;57.19
27958;BME280;15295;42.658;23.374;2024-03-02T07:28:13;94085.81;;;13.76;57.55
27958;BME280;15295;42.658;23.374;2024-03-02T07:30:39;94078.03;;;13.74;57.52
27958;BME280;15295;42.658;23.374;2024-03-02T07:33:05;94083.34;;;13.65;57.66
27958;BME280;15295;42.658;23.374;2024-03-02T07:35:33;94074.84;;;13.60;57.81
27958;BME280;15295;42.658;23.374;2024-03-02T07:38:02;94081.53;;;13.59;57.83
27958;BME280;15295;42.658;23.374;2024-03-02T07:43:07;94069.44;;;13.40;58.16
27958;BME280;15295;42.658;23.374;2024-03-02T07:45:41;94078.50;;;13.37;58.51
27958;BME280;15295;42.658;23.374;2024-03-02T07:48:06;94087.44;;;13.41;58.85
27958;BME280;15295;42.658;23.374;2024-03-02T07:50:32;94093.59;;;13.45;58.70
27958;BME280;15295;42.658;23.374;2024-03-02T07:53:02;94091.44;;;13.37;59.12
27958;BME280;15295;42.658;23.374;2024-03-02T07:55:30;94089.81;;;13.39;59.24
27958;BME280;15295;42.658;23.374;2024-03-02T07:57:56;94086.41;;;13.35;59.30
27958;BME280;15295;42.658;23.374;2024-03-02T08:00:23;94087.09;;;13.39;59.29
27958;BME280;15295;42.658;23.374;2024-03-02T08:02:49;94097.41;;;13.51;60.75
27958;BME280;15295;42.658;23.374;2024-03-02T08:05:23;94101.00;;;13.64;60.07
27958;BME280;15295;42.658;23.374;2024-03-02T08:07:48;94097.75;;;13.53;59.63
27958;BME280;15295;42.658;23.374;2024-03-02T08:10:18;94104.44;;;13.52;59.65
27958;BME280;15295;42.658;23.374;2024-03-02T08:12:43;94107.19;;;13.52;59.28
27958;BME280;15295;42.658;23.374;2024-03-02T08:15:10;94111.47;;;13.53;59.05
27958;BME280;15295;42.658;23.374;2024-03-02T08:17:35;94103.06;;;13.60;59.08
27958;BME280;15295;42.658;23.374;2024-03-02T08:20:01;94115.94;;;13.63;59.02
27958;BME280;15295;42.658;23.374;2024-03-02T08:22:27;94094.97;;;13.37;59.29
27958;BME280;15295;42.658;23.374;2024-03-02T08:24:53;94104.25;;;13.43;59.37
27958;BME280;15295;42.658;23.374;2024-03-02T08:27:19;94096.53;;;13.38;59.65
27958;BME280;15295;42.658;23.374;2024-03-02T08:29:45;94104.53;;;13.49;59.65
27958;BME280;15295;42.658;23.374;2024-03-02T08:32:10;94109.81;;;13.56;59.63
27958;BME280;15295;42.658;23.374;2024-03-02T08:34:36;94100.31;;;13.60;59.56
27958;BME280;15295;42.658;23.374;2024-03-02T08:37:02;94089.19;;;13.51;59.78
27958;BME280;15295;42.658;23.374;2024-03-02T08:39:28;94090.78;;;13.65;59.77
27958;BME280;15295;42.658;23.374;2024-03-02T08:41:54;94109.41;;;13.73;59.58
27958;BME280;15295;42.658;23.374;2024-03-02T08:44:20;94105.84;;;13.76;59.73
27958;BME280;15295;42.658;23.374;2024-03-02T08:46:46;94113.03;;;13.70;59.55
27958;BME280;15295;42.658;23.374;2024-03-02T08:49:12;94106.50;;;13.64;59.71
27958;BME280;15295;42.658;23.374;2024-03-02T08:51:37;94108.75;;;13.69;59.66
27958;BME280;15295;42.658;23.374;2024-03-02T08:54:03;94109.59;;;13.82;59.92
27958;BME280;15295;42.658;23.374;2024-03-02T08:56:30;94101.63;;;13.88;60.04
27958;BME280;15295;42.658;23.374;2024-03-02T08:58:56;94105.56;;;14.03;59.89
27958;BME280;15295;42.658;23.374;2024-03-02T09:01:21;94106.50;;;14.13;59.47
27958;BME280;15295;42.658;23.374;2024-03-02T09:03:47;94110.28;;;14.19;59.10
27958;BME280;15295;42.658;23.374;2024-03-02T09:06:14;94103.38;;;14.27;58.77
27958;BME280;15295;42.658;23.374;2024-03-02T09:08:42;94107.78;;;14.40;58.67
27958;BME280;15295;42.658;23.374;2024-03-02T09:11:08;94104.09;;;14.47;57.92
27958;BME280;15295;42.658;23.374;2024-03-02T09:13:35;94104.31;;;14.52;57.47
27958;BME280;15295;42.658;23.374;2024-03-02T09:16:01;94116.59;;;14.64;56.92
27958;BME280;15295;42.658;23.374;2024-03-02T09:18:28;94113.19;;;14.73;55.83
27958;BME280;15295;42.658;23.374;2024-03-02T09:20:53;94109.00;;;14.68;55.30
27958;BME280;15295;42.658;23.374;2024-03-02T09:23:19;94118.06;;;14.81;55.15
27958;BME280;15295;42.658;23.374;2024-03-02T09:25:44;94127.53;;;14.80;54.93
27958;BME280;15295;42.658;23.374;2024-03-02T09:28:10;94128.41;;;14.77;54.59
27958;BME280;15295;42.658;23.374;2024-03-02T09:30:36;94113.53;;;14.75;54.39
27958;BME280;15295;42.658;23.374;2024-03-02T09:33:01;94102.66;;;14.71;54.41
27958;BME280;15295;42.658;23.374;2024-03-02T09:35:28;94127.63;;;14.77;54.57
27958;BME280;15295;42.658;23.374;2024-03-02T09:37:53;94121.69;;;14.78;54.42
27958;BME280;15295;42.658;23.374;2024-03-02T09:40:21;94119.81;;;14.75;54.90
27958;BME280;15295;42.658;23.374;2024-03-02T09:42:47;94125.44;;;14.84;55.21
27958;BME280;15295;42.658;23.374;2024-03-02T09:45:23;94126.47;;;14.90;55.03
27958;BME280;15295;42.658;23.374;2024-03-02T09:47:49;94132.59;;;14.82;55.34
27958;BME280;15295;42.658;23.374;2024-03-02T09:50:14;94128.56;;;14.86;55.55
27958;BME280;15295;42.658;23.374;2024-03-02T09:52:40;94114.66;;;14.77;55.66
27958;BME280;15295;42.658;23.374;2024-03-02T09:55:08;94115.84;;;14.76;55.47
27958;BME280;15295;42.658;23.374;2024-03-02T09:57:34;94119.44;;;14.60;55.61
27958;BME280;15295;42.658;23.374;2024-03-02T09:59:59;94118.50;;;14.51;55.79
27958;BME280;15295;42.658;23.374;2024-03-02T10:02:27;94125.59;;;14.64;56.09
27958;BME280;15295;42.658;23.374;2024-03-02T10:04:52;94123.28;;;14.63;55.99
27958;BME280;15295;42.658;23.374;2024-03-02T10:07:18;94126.31;;;14.81;56.00
27958;BME280;15295;42.658;23.374;2024-03-02T10:09:46;94122.91;;;14.77;56.03
27958;BME280;15295;42.658;23.374;2024-03-02T10:12:14;94124.81;;;14.93;56.41
27958;BME280;15295;42.658;23.374;2024-03-02T10:14:40;94119.56;;;14.98;56.38
27958;BME280;15295;42.658;23.374;2024-03-02T10:17:07;94127.06;;;15.10;56.11
27958;BME280;15295;42.658;23.374;2024-03-02T10:19:33;94122.47;;;15.07;56.14
27958;BME280;15295;42.658;23.374;2024-03-02T10:22:01;94118.94;;;15.07;56.35
27958;BME280;15295;42.658;23.374;2024-03-02T10:24:28;94127.22;;;15.19;56.11
27958;BME280;15295;42.658;23.374;2024-03-02T10:26:53;94120.38;;;15.24;56.18
27958;BME280;15295;42.658;23.374;2024-03-02T10:29:19;94129.53;;;15.33;56.07
27958;BME280;15295;42.658;23.374;2024-03-02T10:31:46;94123.16;;;15.36;55.98
27958;BME280;15295;42.658;23.374;2024-03-02T10:34:12;94116.53;;;15.21;55.74
27958;BME280;15295;42.658;23.374;2024-03-02T10:36:43;94118.53;;;15.33;55.66
27958;BME280;15295;42.658;23.374;2024-03-02T10:39:10;94124.72;;;15.37;55.70
27958;BME280;15295;42.658;23.374;2024-03-02T10:41:37;94120.75;;;15.38;55.37
27958;BME280;15295;42.658;23.374;2024-03-02T10:44:07;94125.81;;;15.40;55.45
27958;BME280;15295;42.658;23.374;2024-03-02T10:46:36;94121.28;;;15.33;55.62
27958;BME280;15295;42.658;23.374;2024-03-02T10:49:03;94101.66;;;15.31;55.54
27958;BME280;15295;42.658;23.374;2024-03-02T10:51:31;94111.16;;;15.30;55.55
27958;BME280;15295;42.658;23.374;2024-03-02T10:54:00;94113.09;;;15.46;55.22
27958;BME280;15295;42.658;23.374;2024-03-02T11:01:59;94107.22;;;15.44;55.18
27958;BME280;15295;42.658;23.374;2024-03-02T11:04:29;94112.63;;;15.48;55.09
27958;BME280;15295;42.658;23.374;2024-03-02T11:07:06;94107.22;;;15.44;54.83
27958;BME280;15295;42.658;23.374;2024-03-02T11:09:38;94108.78;;;15.45;54.70
27958;BME280;15295;42.658;23.374;2024-03-02T11:14:51;94100.06;;;15.47;55.07
27958;BME280;15295;42.658;23.374;2024-03-02T11:17:19;94082.19;;;15.38;55.31
27958;BME280;15295;42.658;23.374;2024-03-02T11:19:46;94106.22;;;15.51;55.51
27958;BME280;15295;42.658;23.374;2024-03-02T11:22:13;94105.69;;;15.43;55.52
27958;BME280;15295;42.658;23.374;2024-03-02T11:24:48;94091.47;;;15.44;55.61
27958;BME280;15295;42.658;23.374;2024-03-02T11:27:13;94087.81;;;15.35;55.70
27958;BME280;15295;42.658;23.374;2024-03-02T11:32:17;94105.09;;;15.35;55.63
27958;BME280;15295;42.658;23.374;2024-03-02T11:34:46;94079.75;;;15.15;55.71
27958;BME280;15295;42.658;23.374;2024-03-02T11:37:19;94096.00;;;15.10;55.79
27958;BME280;15295;42.658;23.374;2024-03-02T11:39:51;94089.97;;;15.02;55.68
27958;BME280;15295;42.658;23.374;2024-03-02T11:42:17;94101.19;;;15.08;56.07
27958;BME280;15295;42.658;23.374;2024-03-02T11:44:45;94093.38;;;15.06;56.25
27958;BME280;15295;42.658;23.374;2024-03-02T11:47:13;94098.03;;;15.09;56.07
27958;BME280;15295;42.658;23.374;2024-03-02T11:49:43;94096.78;;;15.10;56.11
27958;BME280;15295;42.658;23.374;2024-03-02T11:52:12;94098.69;;;15.13;55.94
27958;BME280;15295;42.658;23.374;2024-03-02T11:54:40;94081.41;;;15.13;55.91
27958;BME280;15295;42.658;23.374;2024-03-02T11:57:07;94102.56;;;15.28;55.97
27958;BME280;15295;42.658;23.374;2024-03-02T11:59:33;94104.75;;;15.33;55.64
27958;BME280;15295;42.658;23.374;2024-03-02T12:01:59;94097.53;;;15.39;55.86
27958;BME280;15295;42.658;23.374;2024-03-02T12:04:25;94101.78;;;15.40;55.92
27958;BME280;15295;42.658;23.374;2024-03-02T12:06:58;94106.47;;;15.43;55.54
27958;BME280;15295;42.658;23.374;2024-03-02T12:09:27;94095.50;;;15.40;55.54
27958;BME280;15295;42.658;23.374;2024-03-02T12:12:09;94104.47;;;15.44;55.55
27958;BME280;15295;42.658;23.374;2024-03-02T12:14:36;94101.13;;;15.36;55.15
27958;BME280;15295;42.658;23.374;2024-03-02T12:17:03;94101.03;;;15.40;54.82
27958;BME280;15295;42.658;23.374;2024-03-02T12:19:29;94108.94;;;15.38;54.73
27958;BME280;15295;42.658;23.374;2024-03-02T12:21:58;94101.03;;;15.40;54.44
27958;BME280;15295;42.658;23.374;2024-03-02T12:24:26;94093.09;;;15.42;54.32
27958;BME280;15295;42.658;23.374;2024-03-02T12:30:00;94077.22;;;15.33;53.87
27958;BME280;15295;42.658;23.374;2024-03-02T12:32:25;94077.47;;;15.39;54.13
27958;BME280;15295;42.658;23.374;2024-03-02T12:34:52;94102.81;;;15.59;54.30
27958;BME280;15295;42.658;23.374;2024-03-02T12:37:18;94087.06;;;15.60;54.09
27958;BME280;15295;42.658;23.374;2024-03-02T12:39:46;94091.94;;;15.68;54.00
27958;BME280;15295;42.658;23.374;2024-03-02T12:42:12;94101.28;;;15.71;53.72
27958;BME280;15295;42.658;23.374;2024-03-02T12:44:37;94096.78;;;15.64;53.07
27958;BME280;15295;42.658;23.374;2024-03-02T12:47:05;94101.09;;;15.65;53.02
27958;BME280;15295;42.658;23.374;2024-03-02T12:49:30;94101.94;;;15.75;52.89
27958;BME280;15295;42.658;23.374;2024-03-02T12:51:57;94102.41;;;15.73;52.79
27958;BME280;15295;42.658;23.374;2024-03-02T12:54:23;94101.50;;;15.76;52.70
27958;BME280;15295;42.658;23.374;2024-03-02T12:56:50;94100.63;;;15.79;52.86
27958;BME280;15295;42.658;23.374;2024-03-02T12:59:24;94100.41;;;15.86;52.49
27958;BME280;15295;42.658;23.374;2024-03-02T13:01:52;94103.91;;;15.87;52.40
27958;BME280;15295;42.658;23.374;2024-03-02T13:04:25;94098.66;;;15.80;52.50
27958;BME280;15295;42.658;23.374;2024-03-02T13:06:52;94103.50;;;15.88;52.45
27958;BME280;15295;42.658;23.374;2024-03-02T13:09:18;94107.00;;;15.89;52.39